createdAt,value
2022-09-15T00:01:51.250Z,9.73
2022-09-15T00:04:17.682Z,11.40
2022-09-15T00:06:44.031Z,10.97
2022-09-15T00:09:10.371Z,11.10
2022-09-15T00:11:37.576Z,11.70
2022-09-15T00:14:04.753Z,11.13
2022-09-15T00:16:32.297Z,10.90
2022-09-15T00:19:00.174Z,11.87
2022-09-15T00:21:30.865Z,10.70
2022-09-15T00:23:59.404Z,11.90
2022-09-15T00:26:28.164Z,11.23
2022-09-15T00:28:56.612Z,11.40
2022-09-15T00:31:24.940Z,11.23
2022-09-15T00:33:53.789Z,9.80
2022-09-15T00:36:21.426Z,11.63
2022-09-15T00:38:47.856Z,9.73
2022-09-15T00:41:20.471Z,10.37
2022-09-15T00:43:48.564Z,11.63
2022-09-15T00:46:15.635Z,10.80
2022-09-15T00:48:45.316Z,10.67
2022-09-15T00:51:16.616Z,10.40
2022-09-15T00:53:43.962Z,9.30
2022-09-15T00:56:12.889Z,9.97
2022-09-15T00:58:57.405Z,10.20
2022-09-15T01:01:25.174Z,11.00
2022-09-15T01:03:51.765Z,9.37
2022-09-15T01:06:26.446Z,10.27
2022-09-15T01:09:10.443Z,9.17
2022-09-15T01:11:37.438Z,8.93
2022-09-15T01:14:04.196Z,8.40
2022-09-15T01:17:07.892Z,8.87
2022-09-15T01:20:12.528Z,8.03
2022-09-15T01:23:05.959Z,8.53
2022-09-15T01:25:35.155Z,8.97
2022-09-15T01:28:04.319Z,9.83
2022-09-15T01:30:37.493Z,9.33
2022-09-15T01:33:03.862Z,9.17
2022-09-15T01:35:44.304Z,8.80
2022-09-15T01:38:41.931Z,9.17
2022-09-15T01:41:13.224Z,7.60
2022-09-15T01:43:45.653Z,6.23
2022-09-15T01:46:15.144Z,5.77
2022-09-15T01:48:43.115Z,6.63
2022-09-15T01:51:09.873Z,6.73
2022-09-15T01:53:36.211Z,6.03
2022-09-15T01:56:07.852Z,5.00
2022-09-15T01:58:34.822Z,7.07
2022-09-15T02:01:12.168Z,7.53
2022-09-15T02:03:47.681Z,7.33
2022-09-15T02:06:35.941Z,5.47
2022-09-15T02:09:08.908Z,11.40
2022-09-15T02:11:40.042Z,10.43
2022-09-15T02:14:17.111Z,11.17
2022-09-15T02:16:52.218Z,10.43
2022-09-15T02:19:21.395Z,10.80
2022-09-15T02:21:57.152Z,9.83
2022-09-15T02:24:30.997Z,9.73
2022-09-15T02:26:59.448Z,9.20
2022-09-15T02:29:27.508Z,10.27
2022-09-15T02:31:56.323Z,9.87
2022-09-15T02:34:30.321Z,8.37
2022-09-15T02:36:56.764Z,9.07
2022-09-15T02:39:29.401Z,9.67
2022-09-15T02:41:55.770Z,8.57
2022-09-15T02:44:22.462Z,9.97
2022-09-15T02:46:49.044Z,10.20
2022-09-15T02:49:15.496Z,9.90
2022-09-15T02:51:41.833Z,9.00
2022-09-15T02:54:08.473Z,12.63
2022-09-15T02:56:34.795Z,11.00
2022-09-15T02:59:01.448Z,12.83
2022-09-15T03:01:34.800Z,11.90
2022-09-15T03:04:02.889Z,13.00
2022-09-15T03:06:34.364Z,13.23
2022-09-15T03:09:04.921Z,12.90
2022-09-15T03:11:32.226Z,12.83
2022-09-15T03:14:00.913Z,13.30
2022-09-15T03:16:28.914Z,13.23
2022-09-15T03:18:57.492Z,12.83
2022-09-15T03:21:23.792Z,14.07
2022-09-15T03:23:50.251Z,13.13
2022-09-15T03:26:16.916Z,13.60
2022-09-15T03:28:43.290Z,13.40
2022-09-15T03:31:10.075Z,13.67
2022-09-15T03:33:37.139Z,12.83
2022-09-15T03:36:03.812Z,13.63
2022-09-15T03:38:30.210Z,13.80
2022-09-15T03:41:08.516Z,14.17
2022-09-15T03:43:35.748Z,13.27
2022-09-15T03:46:02.784Z,15.03
2022-09-15T03:48:31.193Z,14.00
2022-09-15T03:50:57.820Z,14.00
2022-09-15T03:53:24.117Z,13.53
2022-09-15T03:55:50.691Z,14.33
2022-09-15T03:58:18.418Z,15.30
2022-09-15T04:00:45.706Z,14.67
2022-09-15T04:03:12.611Z,13.70
2022-09-15T04:05:38.854Z,13.40
2022-09-15T04:08:05.404Z,12.90
2022-09-15T04:10:31.851Z,13.13
2022-09-15T04:12:58.168Z,15.10
2022-09-15T04:15:24.527Z,14.27
2022-09-15T04:17:50.878Z,13.77
2022-09-15T04:20:17.213Z,14.97
2022-09-15T04:22:44.319Z,15.20
2022-09-15T04:25:10.783Z,14.17
2022-09-15T04:27:38.509Z,14.73
2022-09-15T04:30:06.789Z,15.30
2022-09-15T04:32:35.476Z,13.97
2022-09-15T04:35:02.599Z,14.70
2022-09-15T04:37:28.975Z,14.70
2022-09-15T04:39:56.757Z,14.27
2022-09-15T04:42:23.863Z,13.00
2022-09-15T04:44:50.159Z,13.63
2022-09-15T04:47:16.900Z,13.20
2022-09-15T04:49:43.313Z,14.03
2022-09-15T04:52:09.807Z,12.93
2022-09-15T04:54:36.717Z,13.50
2022-09-15T04:57:03.021Z,13.50
2022-09-15T04:59:29.401Z,13.63
2022-09-15T05:01:56.076Z,13.03
2022-09-15T05:04:22.473Z,14.20
2022-09-15T05:06:48.739Z,13.63
2022-09-15T05:09:15.017Z,13.77
2022-09-15T05:11:41.373Z,14.37
2022-09-15T05:14:09.432Z,13.13
2022-09-15T05:16:36.044Z,12.90
2022-09-15T05:19:05.611Z,13.20
2022-09-15T05:21:32.475Z,12.77
2022-09-15T05:23:58.835Z,11.53
2022-09-15T05:26:29.577Z,14.27
2022-09-15T05:28:57.109Z,13.90
2022-09-15T05:31:26.783Z,13.73
2022-09-15T05:33:53.745Z,12.57
2022-09-15T05:36:24.894Z,12.97
2022-09-15T05:38:52.206Z,12.97
2022-09-15T05:41:19.323Z,13.07
2022-09-15T05:43:46.728Z,13.83
2022-09-15T05:46:14.319Z,14.07
2022-09-15T05:48:40.690Z,15.33
2022-09-15T05:51:07.042Z,12.90
2022-09-15T05:53:35.185Z,13.10
2022-09-15T05:56:05.088Z,13.33
2022-09-15T05:58:32.496Z,13.23
2022-09-15T06:01:03.695Z,13.90
2022-09-15T06:03:31.130Z,12.67
2022-09-15T06:06:02.337Z,13.30
2022-09-15T06:08:32.399Z,14.37
2022-09-15T06:11:03.339Z,13.77
2022-09-15T06:13:29.839Z,14.63
2022-09-15T06:16:00.958Z,14.30
2022-09-15T06:18:27.501Z,13.70
2022-09-15T06:20:53.796Z,14.13
2022-09-15T06:23:20.208Z,14.27
2022-09-15T06:25:46.566Z,12.70
2022-09-15T06:28:12.951Z,13.40
2022-09-15T06:30:40.206Z,14.63
2022-09-15T06:33:06.761Z,12.27
2022-09-15T06:35:33.063Z,13.17
2022-09-15T06:37:59.416Z,13.13
2022-09-15T06:40:25.908Z,13.07
2022-09-15T06:42:54.990Z,12.90
2022-09-15T06:45:21.416Z,13.53
2022-09-15T06:47:54.648Z,13.03
2022-09-15T06:50:33.999Z,12.93
2022-09-15T06:53:00.334Z,13.63
2022-09-15T06:55:27.766Z,13.53
2022-09-15T06:57:54.123Z,12.40
2022-09-15T07:00:20.722Z,12.63
2022-09-15T07:02:50.279Z,11.80
2022-09-15T07:05:17.106Z,12.37
2022-09-15T07:07:43.486Z,12.07
2022-09-15T07:10:09.871Z,11.90
2022-09-15T07:12:36.224Z,11.37
2022-09-15T07:15:02.844Z,12.03
2022-09-15T07:17:29.377Z,10.33
2022-09-15T07:19:55.660Z,10.37
2022-09-15T07:22:22.003Z,8.60
2022-09-15T07:24:48.372Z,8.67
2022-09-15T07:27:14.787Z,9.53
2022-09-15T07:29:41.057Z,8.03
2022-09-15T07:32:07.484Z,7.57
2022-09-15T07:34:33.846Z,7.43
2022-09-15T07:37:00.229Z,7.43
2022-09-15T07:39:26.520Z,7.63
2022-09-15T07:41:52.885Z,7.97
2022-09-15T07:44:19.500Z,7.00
2022-09-15T07:46:46.256Z,7.17
2022-09-15T07:49:12.631Z,6.40
2022-09-15T07:51:38.995Z,7.00
2022-09-15T07:54:05.431Z,6.33
2022-09-15T07:56:32.003Z,6.57
2022-09-15T07:58:58.699Z,5.50
2022-09-15T08:01:25.112Z,6.53
2022-09-15T08:03:52.526Z,7.13
2022-09-15T08:06:22.483Z,6.57
2022-09-15T08:08:50.145Z,6.50
2022-09-15T08:11:19.248Z,5.63
2022-09-15T08:13:46.228Z,5.60
2022-09-15T08:16:18.731Z,5.57
2022-09-15T08:18:45.461Z,4.97
2022-09-15T08:21:15.676Z,5.00
2022-09-15T08:23:42.610Z,5.50
2022-09-15T08:26:14.096Z,4.77
2022-09-15T08:28:41.281Z,4.20
2022-09-15T08:31:09.215Z,4.33
2022-09-15T08:33:36.052Z,3.73
2022-09-15T08:36:10.703Z,3.60
2022-09-15T08:38:40.658Z,2.50
2022-09-15T08:41:24.223Z,3.00
2022-09-15T08:44:01.106Z,2.93
2022-09-15T08:46:39.877Z,2.50
2022-09-15T08:49:35.779Z,2.37
2022-09-15T08:52:40.486Z,2.27
2022-09-15T08:55:15.672Z,2.40
2022-09-15T08:57:41.941Z,2.83
2022-09-15T09:00:14.642Z,2.23
2022-09-15T09:03:10.449Z,1.67
2022-09-15T09:05:49.654Z,1.10
2022-09-15T09:08:49.922Z,1.80
2022-09-15T09:11:34.506Z,1.80
2022-09-15T09:14:22.172Z,1.93
2022-09-15T09:17:08.709Z,1.20
2022-09-15T09:20:02.499Z,1.40
2022-09-15T09:22:34.950Z,1.53
2022-09-15T09:25:11.669Z,1.30
2022-09-15T09:27:48.696Z,1.20
2022-09-15T09:30:15.533Z,1.70
2022-09-15T09:32:45.287Z,1.63
2022-09-15T09:35:14.678Z,1.67
2022-09-15T09:37:41.094Z,2.03
2022-09-15T09:40:13.017Z,2.10
2022-09-15T09:42:39.648Z,1.90
2022-09-15T09:45:07.428Z,2.43
2022-09-15T09:47:34.850Z,2.70
2022-09-15T09:50:02.030Z,1.77
2022-09-15T09:52:37.019Z,1.60
2022-09-15T09:55:18.313Z,2.87
2022-09-15T09:57:44.719Z,2.87
2022-09-15T10:00:29.739Z,2.40
2022-09-15T10:02:56.196Z,2.73
2022-09-15T10:05:22.612Z,2.37
2022-09-15T10:07:49.246Z,2.30
2022-09-15T10:10:23.180Z,2.60
2022-09-15T10:12:50.281Z,2.17
2022-09-15T10:15:28.715Z,2.33
2022-09-15T10:17:56.658Z,1.90
2022-09-15T10:20:55.108Z,1.77
2022-09-15T10:23:21.736Z,2.60
2022-09-15T10:25:59.479Z,2.03
2022-09-15T10:28:27.488Z,2.90
2022-09-15T10:31:07.328Z,2.50
2022-09-15T10:33:38.673Z,1.50
2022-09-15T10:36:11.261Z,2.07
2022-09-15T10:38:42.762Z,2.23
2022-09-15T10:41:13.672Z,1.53
2022-09-15T10:44:05.004Z,1.30
2022-09-15T10:46:55.204Z,1.27
2022-09-15T10:49:27.591Z,1.87
2022-09-15T10:52:11.710Z,1.30
2022-09-15T10:55:06.671Z,1.13
2022-09-15T10:58:00.966Z,1.30
2022-09-15T11:00:39.685Z,1.30
2022-09-15T11:03:27.366Z,1.30
2022-09-15T11:06:17.342Z,1.60
2022-09-15T11:09:06.940Z,1.50
2022-09-15T11:11:42.278Z,1.27
2022-09-15T11:14:17.200Z,1.47
2022-09-15T11:16:49.637Z,1.13
2022-09-15T11:19:36.854Z,1.70
2022-09-15T11:22:05.520Z,1.77
2022-09-15T11:24:43.047Z,1.20
2022-09-15T11:27:42.354Z,1.40
2022-09-15T11:30:18.056Z,1.20
2022-09-15T11:33:05.348Z,1.63
2022-09-15T11:35:54.230Z,1.53
2022-09-15T11:38:29.333Z,1.80
2022-09-15T11:40:59.050Z,1.67
2022-09-15T11:43:34.483Z,1.80
2022-09-15T11:46:02.002Z,1.63
2022-09-15T11:48:33.604Z,1.90
2022-09-15T11:51:03.124Z,2.17
2022-09-15T11:54:04.758Z,2.13
2022-09-15T11:56:40.453Z,1.80
2022-09-15T11:59:26.910Z,1.93
2022-09-15T12:02:07.818Z,2.20
2022-09-15T12:04:43.700Z,2.17
2022-09-15T12:07:17.192Z,2.00
2022-09-15T12:09:43.804Z,1.73
2022-09-15T12:12:15.733Z,2.43
2022-09-15T12:14:44.716Z,1.40
2022-09-15T12:17:21.453Z,1.83
2022-09-15T12:19:47.736Z,1.90
2022-09-15T12:22:17.059Z,1.37
2022-09-15T12:24:51.031Z,1.57
2022-09-15T12:27:19.946Z,1.13
2022-09-15T12:29:53.227Z,1.73
2022-09-15T12:32:21.065Z,2.00
2022-09-15T12:35:13.580Z,2.40
2022-09-15T12:37:45.498Z,2.93
2022-09-15T12:40:25.204Z,2.43
2022-09-15T12:42:52.278Z,2.40
2022-09-15T12:45:27.146Z,2.63
2022-09-15T12:48:13.652Z,2.20
2022-09-15T12:50:51.467Z,2.27
2022-09-15T12:53:17.687Z,2.00
2022-09-15T12:55:52.296Z,1.87
2022-09-15T12:58:30.337Z,3.10
2022-09-15T13:01:19.147Z,2.47
2022-09-15T13:03:45.699Z,2.17
2022-09-15T13:06:27.600Z,2.23
2022-09-15T13:08:55.183Z,2.20
2022-09-15T13:11:34.420Z,1.80
2022-09-15T13:14:03.568Z,1.50
2022-09-15T13:16:46.552Z,2.40
2022-09-15T13:19:35.836Z,1.70
2022-09-15T13:22:10.957Z,2.00
2022-09-15T13:24:59.095Z,2.20
2022-09-15T13:27:35.544Z,2.00
2022-09-15T13:30:20.371Z,1.87
2022-09-15T13:32:59.341Z,2.13
2022-09-15T13:36:15.988Z,1.20
2022-09-15T13:39:20.941Z,1.30
2022-09-15T13:42:05.784Z,1.80
2022-09-15T13:45:00.769Z,2.43
2022-09-15T13:47:41.210Z,1.10
2022-09-15T13:50:23.433Z,1.03
2022-09-15T13:53:08.620Z,1.50
2022-09-15T13:55:39.157Z,1.00
2022-09-15T14:00:56.321Z,1.33
2022-09-15T14:03:28.411Z,1.00
2022-09-15T14:05:55.513Z,1.50
2022-09-15T14:08:26.760Z,1.30
2022-09-15T14:11:10.357Z,1.80
2022-09-15T14:13:38.133Z,1.23
2022-09-15T14:16:23.539Z,1.17
2022-09-15T14:18:50.667Z,1.53
2022-09-15T14:21:18.622Z,1.60
2022-09-15T14:23:50.472Z,1.30
2022-09-15T14:26:18.563Z,1.57
2022-09-15T14:28:50.962Z,1.37
2022-09-15T14:31:18.140Z,1.30
2022-09-15T14:33:45.729Z,1.10
2022-09-15T14:36:14.753Z,1.20
2022-09-15T14:38:41.058Z,1.60
2022-09-15T14:41:18.864Z,1.80
2022-09-15T14:43:45.180Z,1.30
2022-09-15T14:46:11.866Z,1.23
2022-09-15T14:48:38.745Z,1.63
2022-09-15T14:51:08.823Z,1.40
2022-09-15T14:53:38.403Z,1.97
2022-09-15T14:56:26.060Z,1.10
2022-09-15T14:58:53.969Z,1.30
2022-09-15T15:01:26.448Z,1.40
2022-09-15T15:04:24.299Z,1.47
2022-09-15T15:06:50.533Z,1.40
2022-09-15T15:09:25.035Z,1.50
2022-09-15T15:11:54.948Z,1.83
2022-09-15T15:16:58.626Z,1.37
2022-09-15T15:19:35.238Z,1.40
2022-09-15T15:22:13.639Z,1.37
2022-09-15T15:24:42.792Z,1.43
2022-09-15T15:27:27.736Z,2.10
2022-09-15T15:29:54.117Z,1.60
2022-09-15T15:32:22.549Z,1.67
2022-09-15T15:34:50.504Z,1.60
2022-09-15T15:37:30.083Z,1.73
2022-09-15T15:39:58.399Z,1.80
2022-09-15T15:42:26.051Z,1.50
2022-09-15T15:45:20.197Z,1.50
2022-09-15T15:47:46.467Z,1.50
2022-09-15T15:50:20.792Z,1.27
2022-09-15T15:52:48.634Z,1.63
2022-09-15T15:55:17.630Z,1.40
2022-09-15T15:57:44.278Z,1.33
2022-09-15T16:00:36.614Z,1.70
2022-09-15T16:03:02.923Z,2.10
2022-09-15T16:05:29.818Z,1.30
2022-09-15T16:07:59.337Z,1.40
2022-09-15T16:10:27.954Z,1.47
2022-09-15T16:12:54.202Z,2.00
2022-09-15T16:15:21.374Z,1.63
2022-09-15T16:17:49.065Z,1.50
2022-09-15T16:20:16.331Z,1.57
2022-09-15T16:22:43.210Z,1.60
2022-09-15T16:25:23.169Z,1.10
2022-09-15T16:27:49.706Z,1.03
2022-09-15T16:30:16.068Z,1.37
2022-09-15T16:32:42.372Z,1.37
2022-09-15T16:35:23.944Z,1.10
2022-09-15T16:37:50.282Z,1.40
2022-09-15T16:40:17.800Z,1.40
2022-09-15T16:42:44.278Z,1.10
2022-09-15T16:45:23.137Z,1.47
2022-09-15T16:47:49.467Z,1.73
2022-09-15T16:50:15.778Z,1.50
2022-09-15T16:52:42.102Z,1.20
2022-09-15T16:55:37.545Z,1.20
2022-09-15T16:58:05.009Z,1.30
2022-09-15T17:00:34.608Z,1.37
2022-09-15T17:03:01.348Z,1.50
2022-09-15T17:05:32.451Z,1.27
2022-09-15T17:07:58.797Z,1.23
2022-09-15T17:10:25.287Z,1.27
2022-09-15T17:12:51.954Z,1.67
2022-09-15T17:15:23.020Z,1.77
2022-09-15T17:17:49.307Z,1.70
2022-09-15T17:20:15.832Z,1.50
2022-09-15T17:22:42.169Z,1.70
2022-09-15T17:25:29.913Z,1.40
2022-09-15T17:27:57.644Z,1.50
2022-09-15T17:30:27.447Z,1.60
2022-09-15T17:33:10.673Z,3.10
2022-09-15T17:35:37.764Z,1.30
2022-09-15T17:38:04.820Z,1.53
2022-09-15T17:40:32.539Z,1.23
2022-09-15T17:43:00.472Z,1.63
2022-09-15T17:45:29.976Z,1.10
2022-09-15T17:47:57.168Z,1.40
2022-09-15T17:50:26.057Z,1.47
2022-09-15T17:52:52.623Z,1.47
2022-09-15T17:55:23.236Z,1.47
2022-09-15T17:57:49.965Z,1.90
2022-09-15T18:00:18.717Z,1.73
2022-09-15T18:02:52.142Z,1.63
2022-09-15T18:05:26.132Z,1.53
2022-09-15T18:08:02.996Z,1.67
2022-09-15T18:10:31.094Z,1.40
2022-09-15T18:12:57.530Z,1.87
2022-09-15T18:15:25.935Z,1.10
2022-09-15T18:17:53.724Z,0.90
2022-09-15T18:20:22.287Z,1.37
2022-09-15T18:22:48.612Z,2.10
2022-09-15T18:25:16.567Z,1.43
2022-09-15T18:27:43.093Z,1.40
2022-09-15T18:30:10.097Z,1.70
2022-09-15T18:32:36.450Z,1.70
2022-09-15T18:35:02.904Z,1.30
2022-09-15T18:37:29.244Z,1.40
2022-09-15T18:39:55.549Z,1.50
2022-09-15T18:42:21.913Z,1.03
2022-09-15T18:44:48.224Z,1.40
2022-09-15T18:47:14.553Z,1.20
2022-09-15T18:49:40.851Z,1.20
2022-09-15T18:52:07.231Z,1.50
2022-09-15T18:54:36.163Z,1.60
2022-09-15T18:57:02.544Z,1.40
2022-09-15T18:59:28.910Z,1.57
2022-09-15T19:01:55.579Z,1.47
2022-09-15T19:04:21.993Z,1.20
2022-09-15T19:06:48.303Z,1.30
2022-09-15T19:09:14.628Z,1.50
2022-09-15T19:11:40.883Z,1.27
2022-09-15T19:14:07.773Z,1.20
2022-09-15T19:16:53.620Z,1.20
2022-09-15T19:19:20.449Z,1.30
2022-09-15T19:21:46.841Z,1.67
2022-09-15T19:24:15.487Z,1.70
2022-09-15T19:26:42.449Z,1.60
2022-09-15T19:29:09.237Z,1.70
2022-09-15T19:31:41.671Z,1.70
2022-09-15T19:34:08.448Z,1.43
2022-09-15T19:36:34.898Z,1.30
2022-09-15T19:39:03.117Z,1.27
2022-09-15T19:41:30.198Z,1.60
2022-09-15T19:43:56.565Z,1.40
2022-09-15T19:46:24.571Z,1.43
2022-09-15T19:48:51.924Z,1.30
2022-09-15T19:51:19.420Z,1.47
2022-09-15T19:53:46.360Z,1.30
2022-09-15T19:56:16.889Z,1.20
2022-09-15T19:58:44.261Z,1.43
2022-09-15T20:01:10.851Z,1.77
2022-09-15T20:03:37.424Z,1.40
2022-09-15T20:06:04.975Z,1.13
2022-09-15T20:08:31.736Z,1.40
2022-09-15T20:10:58.467Z,1.33
2022-09-15T20:13:25.109Z,1.73
2022-09-15T20:15:55.387Z,1.30
2022-09-15T20:18:22.116Z,1.33
2022-09-15T20:20:48.350Z,1.20
2022-09-15T20:23:15.120Z,1.30
2022-09-15T20:25:41.377Z,1.10
2022-09-15T20:28:07.691Z,1.17
2022-09-15T20:30:34.123Z,1.20
2022-09-15T20:33:00.471Z,1.10
2022-09-15T20:35:26.783Z,1.20
2022-09-15T20:37:53.456Z,1.30
2022-09-15T20:40:19.808Z,1.30
2022-09-15T20:42:47.516Z,1.30
2022-09-15T20:45:13.935Z,1.30
2022-09-15T20:47:40.201Z,1.30
2022-09-15T20:50:06.868Z,1.13
2022-09-15T20:52:37.590Z,1.27
2022-09-15T20:55:05.257Z,1.40
2022-09-15T20:57:31.938Z,1.23
2022-09-15T20:59:58.270Z,0.93
2022-09-15T21:02:24.797Z,1.20
2022-09-15T21:04:51.092Z,1.20
2022-09-15T21:07:17.408Z,1.17
2022-09-15T21:09:44.480Z,1.20
2022-09-15T21:12:10.801Z,1.37
2022-09-15T21:14:37.100Z,1.30
2022-09-15T21:17:03.499Z,1.03
2022-09-15T21:19:31.361Z,1.50
2022-09-15T21:21:58.415Z,1.80
2022-09-15T21:24:24.729Z,1.30
2022-09-15T21:27:09.695Z,1.20
2022-09-15T21:29:35.942Z,1.67
2022-09-15T21:32:02.540Z,1.27
2022-09-15T21:34:28.937Z,1.13
2022-09-15T21:36:55.243Z,1.57
2022-09-15T21:39:21.553Z,1.20
2022-09-15T21:41:48.012Z,1.67
2022-09-15T21:44:14.413Z,1.63
2022-09-15T21:46:40.733Z,2.20
2022-09-15T21:49:07.985Z,1.70
2022-09-15T21:51:34.355Z,1.43
2022-09-15T21:54:00.739Z,1.20
2022-09-15T21:56:29.405Z,1.27
2022-09-15T21:58:55.914Z,1.50
2022-09-15T22:01:27.373Z,1.57
2022-09-15T22:04:01.654Z,1.23
2022-09-15T22:06:31.771Z,1.50
2022-09-15T22:08:59.045Z,1.20
2022-09-15T22:11:25.437Z,2.00
2022-09-15T22:13:51.811Z,1.80
2022-09-15T22:16:21.239Z,1.70
2022-09-15T22:18:47.689Z,1.67
2022-09-15T22:21:17.239Z,1.60
2022-09-15T22:23:43.765Z,1.70
2022-09-15T22:26:13.737Z,1.30
2022-09-15T22:28:40.101Z,1.20
2022-09-15T22:31:08.338Z,1.70
2022-09-15T22:33:34.712Z,1.20
2022-09-15T22:36:01.141Z,1.10
2022-09-15T22:38:29.250Z,1.77
2022-09-15T22:40:56.613Z,1.37
2022-09-15T22:43:23.167Z,1.33
2022-09-15T22:45:49.770Z,1.87
2022-09-15T22:48:16.092Z,1.50
2022-09-15T22:50:45.194Z,1.60
2022-09-15T22:53:12.845Z,1.30
2022-09-15T22:55:39.767Z,1.33
2022-09-15T22:58:07.294Z,1.73
2022-09-15T23:00:34.162Z,1.47
2022-09-15T23:03:00.486Z,1.20
2022-09-15T23:05:26.821Z,1.43
2022-09-15T23:07:53.082Z,1.43
2022-09-15T23:10:19.376Z,1.63
2022-09-15T23:12:45.690Z,1.33
2022-09-15T23:15:12.019Z,1.43
2022-09-15T23:17:38.967Z,1.07
2022-09-15T23:20:05.894Z,1.03
2022-09-15T23:22:32.265Z,1.20
2022-09-15T23:24:58.733Z,1.10
2022-09-15T23:27:25.058Z,1.50
2022-09-15T23:29:51.364Z,1.60
2022-09-15T23:32:17.712Z,1.30
2022-09-15T23:34:43.942Z,1.17
2022-09-15T23:37:10.449Z,1.80
2022-09-15T23:39:36.756Z,1.97
2022-09-15T23:42:03.085Z,1.13
2022-09-15T23:44:29.331Z,1.50
2022-09-15T23:46:55.702Z,1.60
2022-09-15T23:49:22.109Z,1.33
2022-09-15T23:51:48.444Z,1.90
2022-09-15T23:54:16.002Z,1.70
2022-09-15T23:56:43.230Z,1.20
2022-09-15T23:59:09.836Z,1.13
